Time;durP1;ratioP1;P1;durP2;ratioP2;P2;SDS_P1;SDS_P2;PMS_P1;PMS_P2;Temp;Humidity;BMP_temperature;BMP_pressure;BME280_temperature;BME280_humidity;BME280_pressure;Samples;Min_cycle;Max_cycle;Signal;HPM_P1;HPM_P2
2023/04/09 00:01:33;;;;;;;;;;;18.90;39.60;;;;;;5106364;27;19919;-58
2023/04/09 00:04:00;;;;;;;;;;;18.90;39.60;;;;;;5122229;27;19961;-58
2023/04/09 00:06:28;;;;;;;;;;;18.90;39.60;;;;;;5119508;27;19919;-58
2023/04/09 00:08:55;;;;;;;;;;;19.00;39.70;;;;;;5098858;27;19968;-58
2023/04/09 00:11:21;;;;;;;;;;;18.90;39.60;;;;;;5119472;27;19924;-58
2023/04/09 00:13:48;;;;;;;;;;;18.90;39.60;;;;;;5116715;27;19926;-58
2023/04/09 00:16:15;;;;;;;;;;;18.90;39.70;;;;;;5084966;27;19951;-57
2023/04/09 00:18:42;;;;;;;;;;;18.90;39.60;;;;;;5103116;27;19969;-57
2023/04/09 00:21:09;;;;;;;;;;;18.90;39.70;;;;;;5102462;27;19927;-56
2023/04/09 00:23:37;;;;;;;;;;;18.90;39.70;;;;;;5101161;27;19920;-57
2023/04/09 00:26:04;;;;;;;;;;;18.90;39.70;;;;;;5099945;28;20427;-57
2023/04/09 00:28:30;;;;;;;;;;;18.90;39.70;;;;;;5099780;27;19919;-58
2023/04/09 00:30:57;;;;;;;;;;;18.90;39.70;;;;;;5121779;27;19924;-57
2023/04/09 00:33:24;;;;;;;;;;;18.90;39.70;;;;;;5102361;27;19954;-58
2023/04/09 00:35:51;;;;;;;;;;;18.90;39.70;;;;;;5121323;27;19931;-58
2023/04/09 00:38:18;;;;;;;;;;;18.90;39.70;;;;;;5104334;28;19919;-58
2023/04/09 00:40:48;;;;;;;;;;;18.90;39.70;;;;;;5119857;27;19920;-59
2023/04/09 00:43:15;;;;;;;;;;;18.90;39.70;;;;;;5101845;28;19920;-59
2023/04/09 00:45:41;;;;;;;;;;;18.90;39.60;;;;;;5099517;28;19981;-59
2023/04/09 00:48:08;;;;;;;;;;;18.90;39.60;;;;;;5099937;28;20406;-59
2023/04/09 00:50:35;;;;;;;;;;;18.90;39.60;;;;;;5102952;28;20271;-59
2023/04/09 00:53:02;;;;;;;;;;;18.90;39.50;;;;;;5102148;28;19929;-59
2023/04/09 00:55:29;;;;;;;;;;;18.90;39.50;;;;;;5103457;28;19920;-59
2023/04/09 00:57:57;;;;;;;;;;;19.00;39.50;;;;;;5102957;28;19962;-59
2023/04/09 01:00:24;;;;;;;;;;;19.00;39.50;;;;;;5099419;28;19927;-59
2023/04/09 01:02:51;;;;;;;;;;;18.90;39.40;;;;;;5101597;28;19920;-59
2023/04/09 01:05:18;;;;;;;;;;;19.00;39.40;;;;;;5093915;28;19920;-59
2023/04/09 01:07:50;;;;;;;;;;;19.00;39.40;;;;;;5119570;28;19919;-59
2023/04/09 01:10:17;;;;;;;;;;;19.00;39.40;;;;;;5096882;28;20004;-59
2023/04/09 01:12:46;;;;;;;;;;;19.00;39.40;;;;;;5100808;28;20278;-60
2023/04/09 01:15:15;;;;;;;;;;;19.00;39.40;;;;;;5102314;28;19972;-59
2023/04/09 01:17:48;;;;;;;;;;;19.00;39.40;;;;;;5100576;28;19970;-59
2023/04/09 01:20:18;;;;;;;;;;;19.10;39.40;;;;;;5101432;28;19991;-59
2023/04/09 01:22:49;;;;;;;;;;;19.00;39.30;;;;;;5112533;28;19919;-59
2023/04/09 01:25:21;;;;;;;;;;;19.10;39.40;;;;;;5101407;28;20420;-59
2023/04/09 01:27:53;;;;;;;;;;;19.10;39.40;;;;;;5103560;28;19920;-59
2023/04/09 01:30:21;;;;;;;;;;;19.10;39.40;;;;;;5103854;28;19932;-59
2023/04/09 01:32:48;;;;;;;;;;;19.10;39.40;;;;;;5097845;28;19980;-59
2023/04/09 01:35:15;;;;;;;;;;;19.00;39.30;;;;;;5118832;28;19926;-59
2023/04/09 01:37:42;;;;;;;;;;;19.10;39.30;;;;;;5118919;28;19931;-59
2023/04/09 01:40:12;;;;;;;;;;;19.00;39.30;;;;;;5100653;28;19932;-59
2023/04/09 01:42:39;;;;;;;;;;;19.10;39.30;;;;;;5118932;28;19920;-59
2023/04/09 01:45:06;;;;;;;;;;;19.10;39.30;;;;;;5102736;27;19927;-59
2023/04/09 01:47:34;;;;;;;;;;;19.10;39.30;;;;;;5124746;27;20352;-59
2023/04/09 01:50:01;;;;;;;;;;;19.10;39.30;;;;;;5105017;27;20000;-59
2023/04/09 01:52:28;;;;;;;;;;;19.10;39.30;;;;;;5104020;27;19969;-59
2023/04/09 01:54:54;;;;;;;;;;;19.10;39.30;;;;;;5123327;27;19919;-59
2023/04/09 01:57:21;;;;;;;;;;;19.10;39.30;;;;;;5121954;27;19931;-59
2023/04/09 01:59:48;;;;;;;;;;;19.10;39.30;;;;;;5104304;27;19923;-59
2023/04/09 02:02:17;;;;;;;;;;;19.10;39.30;;;;;;5122037;27;19939;-59
2023/04/09 02:04:46;;;;;;;;;;;19.10;39.30;;;;;;5106773;27;19969;-59
2023/04/09 02:07:15;;;;;;;;;;;19.10;39.30;;;;;;5101425;27;19919;-59
2023/04/09 02:09:41;;;;;;;;;;;19.10;39.20;;;;;;5122684;27;20031;-59
2023/04/09 02:12:10;;;;;;;;;;;19.10;39.20;;;;;;5102805;28;19919;-59
2023/04/09 02:14:37;;;;;;;;;;;19.10;39.20;;;;;;5103392;27;19919;-59
2023/04/09 02:17:04;;;;;;;;;;;19.10;39.20;;;;;;5105548;28;19947;-59
2023/04/09 02:19:40;;;;;;;;;;;19.10;39.20;;;;;;5089063;27;19919;-59
2023/04/09 02:22:08;;;;;;;;;;;19.10;39.20;;;;;;5102557;28;19919;-59
2023/04/09 02:24:35;;;;;;;;;;;19.10;39.20;;;;;;5103328;27;19919;-58
2023/04/09 02:27:02;;;;;;;;;;;19.10;39.20;;;;;;5123624;27;19931;-58
2023/04/09 02:29:30;;;;;;;;;;;19.10;39.20;;;;;;5102938;28;19920;-58
2023/04/09 02:31:57;;;;;;;;;;;19.20;39.30;;;;;;5105215;27;19937;-58
2023/04/09 02:34:23;;;;;;;;;;;19.10;39.20;;;;;;5105463;27;20022;-58
2023/04/09 02:36:50;;;;;;;;;;;19.10;39.20;;;;;;5103626;27;19920;-58
2023/04/09 02:39:18;;;;;;;;;;;19.10;39.20;;;;;;5105130;27;19942;-59
2023/04/09 02:41:46;;;;;;;;;;;19.20;39.30;;;;;;5104227;27;19919;-58
2023/04/09 02:44:19;;;;;;;;;;;19.20;39.20;;;;;;5106058;27;19976;-59
2023/04/09 02:46:46;;;;;;;;;;;19.10;39.10;;;;;;5114292;27;19927;-59
2023/04/09 02:49:13;;;;;;;;;;;19.20;39.80;;;;;;5100895;27;19937;-59
2023/04/09 02:51:40;;;;;;;;;;;19.10;39.10;;;;;;5103717;27;19923;-59
2023/04/09 02:54:06;;;;;;;;;;;19.10;39.10;;;;;;5107026;27;20361;-59
2023/04/09 02:56:34;;;;;;;;;;;19.20;39.20;;;;;;5123028;27;19927;-60
2023/04/09 02:59:01;;;;;;;;;;;19.10;39.20;;;;;;5111815;27;19927;-58
2023/04/09 03:01:28;;;;;;;;;;;19.10;39.10;;;;;;5104939;27;19992;-59
2023/04/09 03:03:55;;;;;;;;;;;19.20;39.20;;;;;;5104813;27;19964;-59
2023/04/09 03:06:21;;;;;;;;;;;19.20;39.80;;;;;;5104788;27;19920;-59
2023/04/09 03:08:48;;;;;;;;;;;19.20;39.20;;;;;;5098014;28;19973;-59
2023/04/09 03:11:15;;;;;;;;;;;19.20;39.20;;;;;;5091729;27;20393;-58
2023/04/09 03:13:43;;;;;;;;;;;19.20;39.20;;;;;;5103607;27;19931;-59
2023/04/09 03:16:10;;;;;;;;;;;19.20;39.20;;;;;;5114755;27;19955;-59
2023/04/09 03:18:37;;;;;;;;;;;19.20;39.20;;;;;;5120152;27;19920;-59
2023/04/09 03:21:05;;;;;;;;;;;19.20;39.20;;;;;;5104863;27;19948;-59
2023/04/09 03:23:33;;;;;;;;;;;19.20;39.20;;;;;;5119555;27;20014;-60
2023/04/09 03:26:01;;;;;;;;;;;19.20;39.20;;;;;;5104360;27;19919;-60
2023/04/09 03:28:28;;;;;;;;;;;19.20;39.20;;;;;;5118875;27;19920;-59
2023/04/09 03:30:56;;;;;;;;;;;19.20;39.20;;;;;;5101991;27;19965;-59
2023/04/09 03:33:23;;;;;;;;;;;19.20;39.20;;;;;;5105398;27;19923;-59
2023/04/09 03:35:50;;;;;;;;;;;19.20;39.20;;;;;;5102589;27;19931;-58
2023/04/09 03:38:16;;;;;;;;;;;19.20;39.20;;;;;;5104102;27;19919;-59
2023/04/09 03:40:43;;;;;;;;;;;19.20;39.20;;;;;;5101863;27;19924;-59
2023/04/09 03:43:10;;;;;;;;;;;19.20;39.20;;;;;;5102776;27;19920;-59
2023/04/09 03:45:36;;;;;;;;;;;19.20;39.20;;;;;;5121201;27;19934;-57
2023/04/09 03:48:05;;;;;;;;;;;19.20;39.20;;;;;;5117503;27;19924;-60
2023/04/09 03:50:32;;;;;;;;;;;19.20;39.20;;;;;;5103342;27;19919;-59
2023/04/09 03:52:58;;;;;;;;;;;19.20;39.10;;;;;;5101015;28;20304;-59
2023/04/09 03:55:25;;;;;;;;;;;19.20;39.10;;;;;;5104508;27;19940;-59
2023/04/09 03:57:52;;;;;;;;;;;19.20;39.10;;;;;;5100674;27;19955;-59
2023/04/09 04:00:19;;;;;;;;;;;19.20;39.20;;;;;;5103597;27;19969;-59
2023/04/09 04:02:48;;;;;;;;;;;19.20;39.20;;;;;;5091835;28;20348;-59
2023/04/09 04:05:16;;;;;;;;;;;19.20;39.20;;;;;;5119630;27;19923;-58
2023/04/09 04:07:43;;;;;;;;;;;19.20;39.10;;;;;;5107614;27;19927;-59
2023/04/09 04:10:10;;;;;;;;;;;19.20;39.20;;;;;;5091432;27;20009;-59
2023/04/09 04:12:37;;;;;;;;;;;19.20;39.20;;;;;;5101478;27;19931;-59
2023/04/09 04:15:04;;;;;;;;;;;19.20;39.10;;;;;;5105061;27;19920;-59
2023/04/09 04:17:31;;;;;;;;;;;19.20;39.20;;;;;;5103383;27;19920;-59
2023/04/09 04:19:58;;;;;;;;;;;19.20;39.10;;;;;;5101667;28;19919;-59
2023/04/09 04:22:32;;;;;;;;;;;19.20;39.20;;;;;;5103192;27;20315;-58
2023/04/09 04:24:59;;;;;;;;;;;19.20;39.20;;;;;;5103351;27;20008;-60
2023/04/09 04:27:26;;;;;;;;;;;19.20;39.10;;;;;;5085352;27;19931;-59
2023/04/09 04:29:53;;;;;;;;;;;19.20;39.10;;;;;;5099309;27;19930;-59
2023/04/09 04:32:20;;;;;;;;;;;19.20;39.10;;;;;;5101073;27;20052;-59
2023/04/09 04:34:48;;;;;;;;;;;19.20;39.20;;;;;;5119412;27;20029;-59
2023/04/09 04:37:15;;;;;;;;;;;19.20;39.10;;;;;;5097375;28;19950;-60
2023/04/09 04:39:43;;;;;;;;;;;19.20;39.10;;;;;;5104297;28;19923;-59
2023/04/09 04:42:12;;;;;;;;;;;19.20;39.10;;;;;;5120105;27;19995;-59
2023/04/09 04:44:38;;;;;;;;;;;19.20;39.10;;;;;;5115310;27;19920;-59
2023/04/09 04:47:05;;;;;;;;;;;19.30;39.20;;;;;;5091065;27;19968;-60
2023/04/09 04:49:32;;;;;;;;;;;19.20;39.10;;;;;;5110753;27;19991;-59
2023/04/09 04:51:59;;;;;;;;;;;19.20;39.10;;;;;;5110327;27;19924;-59
2023/04/09 04:54:25;;;;;;;;;;;19.20;39.10;;;;;;5097835;28;19923;-59
2023/04/09 04:56:53;;;;;;;;;;;19.20;39.10;;;;;;5114221;28;19972;-59
2023/04/09 04:59:20;;;;;;;;;;;19.20;39.10;;;;;;5101920;28;19988;-59
2023/04/09 05:01:49;;;;;;;;;;;19.20;39.20;;;;;;5098159;28;19967;-58
2023/04/09 05:04:15;;;;;;;;;;;19.20;39.10;;;;;;5101304;28;19941;-58
2023/04/09 05:06:42;;;;;;;;;;;19.30;39.20;;;;;;5119759;28;20018;-58
2023/04/09 05:09:09;;;;;;;;;;;19.20;39.10;;;;;;5114288;28;19992;-59
2023/04/09 05:11:40;;;;;;;;;;;19.20;39.20;;;;;;5113833;28;19924;-59
2023/04/09 05:14:08;;;;;;;;;;;19.20;39.10;;;;;;5103746;28;19919;-58
2023/04/09 05:16:37;;;;;;;;;;;19.20;39.20;;;;;;5110311;28;19920;-58
2023/04/09 05:19:04;;;;;;;;;;;19.30;39.20;;;;;;5107055;28;19923;-59
2023/04/09 05:21:31;;;;;;;;;;;19.30;39.20;;;;;;5087859;27;19934;-59
2023/04/09 05:23:58;;;;;;;;;;;19.20;39.10;;;;;;5121505;27;19998;-59
2023/04/09 05:26:25;;;;;;;;;;;19.30;39.20;;;;;;5100835;27;19932;-58
2023/04/09 05:28:52;;;;;;;;;;;19.20;39.20;;;;;;5129403;27;19919;-58
2023/04/09 05:31:20;;;;;;;;;;;19.20;39.20;;;;;;5108223;27;20362;-59
2023/04/09 05:33:47;;;;;;;;;;;19.20;39.20;;;;;;5105600;28;19920;-59
2023/04/09 05:36:15;;;;;;;;;;;19.20;39.20;;;;;;5125022;27;19923;-59
2023/04/09 05:38:41;;;;;;;;;;;19.20;39.20;;;;;;5122447;27;19927;-59
2023/04/09 05:41:08;;;;;;;;;;;19.20;39.20;;;;;;5123555;27;19920;-59
2023/04/09 05:43:35;;;;;;;;;;;19.20;39.20;;;;;;5103292;27;20023;-59
2023/04/09 05:46:01;;;;;;;;;;;19.20;39.20;;;;;;5106253;27;20401;-59
2023/04/09 05:48:30;;;;;;;;;;;19.30;39.20;;;;;;5107213;27;19995;-59
2023/04/09 05:50:57;;;;;;;;;;;19.30;39.20;;;;;;5117231;27;19919;-59
2023/04/09 05:53:23;;;;;;;;;;;19.30;39.20;;;;;;5100827;27;19920;-59
2023/04/09 05:55:50;;;;;;;;;;;19.30;39.20;;;;;;5120391;27;19980;-59
2023/04/09 05:58:17;;;;;;;;;;;19.30;39.20;;;;;;5100543;27;19942;-59
2023/04/09 06:00:44;;;;;;;;;;;19.30;39.20;;;;;;5102112;27;19927;-59
2023/04/09 06:03:10;;;;;;;;;;;19.30;39.20;;;;;;5106580;27;19963;-59
2023/04/09 06:05:39;;;;;;;;;;;19.30;39.20;;;;;;5102732;27;19920;-58
2023/04/09 06:08:05;;;;;;;;;;;19.30;39.20;;;;;;5124900;27;19935;-58
2023/04/09 06:10:32;;;;;;;;;;;19.30;39.20;;;;;;5104269;27;19968;-59
2023/04/09 06:13:01;;;;;;;;;;;19.30;39.20;;;;;;5101843;27;20578;-59
2023/04/09 06:15:33;;;;;;;;;;;19.30;39.20;;;;;;5103933;27;19955;-59
2023/04/09 06:18:02;;;;;;;;;;;19.30;39.30;;;;;;5122242;27;19972;-59
2023/04/09 06:20:31;;;;;;;;;;;19.30;39.20;;;;;;5109164;27;20022;-59
2023/04/09 06:22:59;;;;;;;;;;;19.30;39.20;;;;;;5099826;27;19920;-59
2023/04/09 06:25:26;;;;;;;;;;;19.30;39.30;;;;;;5128065;27;20365;-59
2023/04/09 06:27:53;;;;;;;;;;;19.30;39.20;;;;;;5109725;27;19964;-59
2023/04/09 06:30:19;;;;;;;;;;;19.30;39.20;;;;;;5126755;27;19934;-59
2023/04/09 06:32:47;;;;;;;;;;;19.30;39.20;;;;;;5093875;27;20311;-59
2023/04/09 06:35:14;;;;;;;;;;;19.30;39.20;;;;;;5100084;27;20349;-59
2023/04/09 06:37:41;;;;;;;;;;;19.30;39.20;;;;;;5100789;27;19920;-59
2023/04/09 06:40:11;;;;;;;;;;;19.30;39.20;;;;;;5103635;27;19924;-59
2023/04/09 06:42:37;;;;;;;;;;;19.30;39.20;;;;;;5095732;28;19980;-59
2023/04/09 06:45:07;;;;;;;;;;;19.30;39.20;;;;;;5095473;27;19919;-59
2023/04/09 06:47:33;;;;;;;;;;;19.30;39.10;;;;;;5117626;27;19919;-59
2023/04/09 06:50:00;;;;;;;;;;;19.30;39.20;;;;;;5114898;27;19972;-59
2023/04/09 06:52:27;;;;;;;;;;;19.30;39.10;;;;;;5101926;27;19960;-61
2023/04/09 06:54:54;;;;;;;;;;;19.30;39.20;;;;;;5096022;27;19927;-59
2023/04/09 06:57:23;;;;;;;;;;;19.30;39.20;;;;;;5101031;27;19932;-59
2023/04/09 06:59:50;;;;;;;;;;;19.30;39.20;;;;;;5119433;27;19945;-59
2023/04/09 07:02:16;;;;;;;;;;;19.30;39.10;;;;;;5101297;27;19919;-59
2023/04/09 07:04:43;;;;;;;;;;;19.30;39.20;;;;;;5102472;27;19958;-59
2023/04/09 07:07:10;;;;;;;;;;;19.30;39.20;;;;;;5115712;27;19977;-59
2023/04/09 07:09:36;;;;;;;;;;;19.30;39.80;;;;;;5100916;27;19931;-59
2023/04/09 07:12:03;;;;;;;;;;;19.30;39.20;;;;;;5114965;27;19919;-60
2023/04/09 07:14:33;;;;;;;;;;;19.30;39.20;;;;;;5099565;28;20023;-59
2023/04/09 07:17:00;;;;;;;;;;;19.30;39.20;;;;;;5100138;28;19946;-59
2023/04/09 07:19:28;;;;;;;;;;;19.30;39.20;;;;;;5098672;28;20197;-59
2023/04/09 07:21:54;;;;;;;;;;;19.30;39.20;;;;;;5118416;27;19930;-59
2023/04/09 07:24:21;;;;;;;;;;;19.30;39.20;;;;;;5098673;27;19968;-59
2023/04/09 07:26:49;;;;;;;;;;;19.30;39.20;;;;;;5097971;28;20426;-59
2023/04/09 07:29:16;;;;;;;;;;;19.30;39.20;;;;;;5092987;27;20236;-59
2023/04/09 07:31:44;;;;;;;;;;;19.30;39.20;;;;;;5096366;28;19962;-59
2023/04/09 07:34:11;;;;;;;;;;;19.30;39.20;;;;;;5096250;27;20018;-58
2023/04/09 07:36:38;;;;;;;;;;;19.30;39.20;;;;;;5119587;27;19931;-59
2023/04/09 07:39:05;;;;;;;;;;;19.30;39.20;;;;;;5105841;27;19920;-58
2023/04/09 07:41:31;;;;;;;;;;;19.30;39.20;;;;;;5121998;27;19919;-59
2023/04/09 07:43:58;;;;;;;;;;;19.40;39.30;;;;;;5121005;27;19919;-59
2023/04/09 07:46:25;;;;;;;;;;;19.30;39.20;;;;;;5104859;27;20003;-58
2023/04/09 07:48:55;;;;;;;;;;;19.30;39.20;;;;;;5102905;27;20657;-58
2023/04/09 07:51:22;;;;;;;;;;;19.30;39.20;;;;;;5101147;27;20274;-58
2023/04/09 07:53:48;;;;;;;;;;;19.30;39.20;;;;;;5101513;27;19919;-58
2023/04/09 07:56:15;;;;;;;;;;;19.30;39.20;;;;;;5097891;28;19962;-59
2023/04/09 07:58:42;;;;;;;;;;;19.30;39.20;;;;;;5097416;28;19926;-59
2023/04/09 08:01:09;;;;;;;;;;;19.40;39.30;;;;;;5096555;28;19919;-60
2023/04/09 08:03:36;;;;;;;;;;;19.40;39.30;;;;;;5102888;27;19939;-59
2023/04/09 08:06:04;;;;;;;;;;;19.30;39.20;;;;;;5096005;27;20034;-58
2023/04/09 08:08:31;;;;;;;;;;;19.30;39.20;;;;;;5117456;27;19946;-58
2023/04/09 08:10:58;;;;;;;;;;;19.30;39.20;;;;;;5104344;27;19976;-59
2023/04/09 08:13:24;;;;;;;;;;;19.30;39.20;;;;;;5093224;27;19919;-59
2023/04/09 08:15:51;;;;;;;;;;;19.40;39.30;;;;;;5103780;28;19919;-59
2023/04/09 08:18:18;;;;;;;;;;;19.40;39.30;;;;;;5098446;27;19974;-59
2023/04/09 08:20:44;;;;;;;;;;;19.40;39.30;;;;;;5099664;27;19923;-59
2023/04/09 08:23:13;;;;;;;;;;;19.30;39.20;;;;;;5096514;28;19977;-59
2023/04/09 08:25:40;;;;;;;;;;;19.40;39.30;;;;;;5091994;27;19932;-59
2023/04/09 08:28:07;;;;;;;;;;;19.40;39.30;;;;;;5102713;28;19926;-60
2023/04/09 08:30:33;;;;;;;;;;;19.40;39.30;;;;;;5100679;27;19962;-60
2023/04/09 08:33:00;;;;;;;;;;;19.40;39.30;;;;;;5095482;28;19920;-60
2023/04/09 08:35:28;;;;;;;;;;;19.40;39.30;;;;;;5095952;28;20022;-59
2023/04/09 08:37:55;;;;;;;;;;;19.40;39.20;;;;;;5101736;28;20010;-59
2023/04/09 08:40:23;;;;;;;;;;;19.40;39.20;;;;;;5094039;27;19961;-59
2023/04/09 08:42:52;;;;;;;;;;;19.30;39.20;;;;;;5113338;27;19919;-59
2023/04/09 08:45:18;;;;;;;;;;;19.40;39.20;;;;;;5096895;28;19949;-59
2023/04/09 08:47:45;;;;;;;;;;;19.40;39.30;;;;;;5086899;28;19972;-59
2023/04/09 08:50:13;;;;;;;;;;;19.40;39.30;;;;;;5113787;27;19926;-58
2023/04/09 08:52:39;;;;;;;;;;;19.40;39.30;;;;;;5110024;28;20367;-60
2023/04/09 08:55:07;;;;;;;;;;;19.40;39.30;;;;;;5106336;27;20018;-59
2023/04/09 08:57:38;;;;;;;;;;;19.40;39.30;;;;;;5095293;28;20006;-60
2023/04/09 09:00:05;;;;;;;;;;;19.40;39.30;;;;;;5094516;28;20007;-60
2023/04/09 09:02:32;;;;;;;;;;;19.40;39.30;;;;;;5107230;28;19969;-59
2023/04/09 09:04:59;;;;;;;;;;;19.40;39.30;;;;;;5097784;28;19919;-59
2023/04/09 09:07:27;;;;;;;;;;;19.40;39.30;;;;;;5117194;28;19930;-59
2023/04/09 09:09:53;;;;;;;;;;;19.40;39.30;;;;;;5097942;28;20011;-60
2023/04/09 09:12:33;;;;;;;;;;;19.40;39.30;;;;;;5087115;28;20340;-59
2023/04/09 09:15:01;;;;;;;;;;;19.40;39.30;;;;;;5095697;28;19927;-59
2023/04/09 09:17:28;;;;;;;;;;;19.40;39.30;;;;;;5088923;28;19924;-59
2023/04/09 09:19:55;;;;;;;;;;;19.40;39.30;;;;;;5104359;28;19920;-59
2023/04/09 09:22:22;;;;;;;;;;;19.40;39.30;;;;;;5092001;28;19943;-59
2023/04/09 09:24:49;;;;;;;;;;;19.40;39.30;;;;;;5122245;28;19920;-59
2023/04/09 09:27:33;;;;;;;;;;;19.40;39.40;;;;;;5087832;28;20006;-59
2023/04/09 09:30:02;;;;;;;;;;;19.50;39.40;;;;;;5095069;28;19924;-59
2023/04/09 09:32:29;;;;;;;;;;;19.40;39.40;;;;;;5103332;28;19931;-58
2023/04/09 09:35:00;;;;;;;;;;;19.40;39.40;;;;;;5093967;28;19919;-58
2023/04/09 09:37:27;;;;;;;;;;;19.40;39.40;;;;;;5095407;28;19932;-58
2023/04/09 09:39:54;;;;;;;;;;;19.50;39.50;;;;;;5092916;28;20085;-58
2023/04/09 09:42:21;;;;;;;;;;;19.40;39.50;;;;;;5091215;28;20026;-58
2023/04/09 09:44:48;;;;;;;;;;;19.40;39.50;;;;;;5093547;28;20311;-59
2023/04/09 09:47:16;;;;;;;;;;;19.40;39.50;;;;;;5102041;28;19992;-58
2023/04/09 09:49:43;;;;;;;;;;;19.40;39.50;;;;;;5089724;28;19973;-58
2023/04/09 09:52:09;;;;;;;;;;;19.40;39.50;;;;;;5090482;28;19973;-58
2023/04/09 09:54:38;;;;;;;;;;;19.40;39.50;;;;;;5108561;28;19924;-62
2023/04/09 09:57:06;;;;;;;;;;;19.40;39.60;;;;;;5095981;28;19932;-59
2023/04/09 09:59:34;;;;;;;;;;;19.50;39.60;;;;;;5108908;28;19969;-59
2023/04/09 10:02:04;;;;;;;;;;;19.50;39.60;;;;;;5098005;28;19951;-59
2023/04/09 10:04:33;;;;;;;;;;;19.50;39.60;;;;;;5091576;27;19919;-59
2023/04/09 10:07:00;;;;;;;;;;;19.50;39.60;;;;;;5106131;28;20055;-59
2023/04/09 10:09:27;;;;;;;;;;;19.50;39.60;;;;;;5100293;28;19931;-59
2023/04/09 10:11:54;;;;;;;;;;;19.50;39.70;;;;;;5117705;27;19919;-59
2023/04/09 10:14:21;;;;;;;;;;;19.50;39.60;;;;;;5093642;28;19919;-59
2023/04/09 10:16:48;;;;;;;;;;;19.50;39.70;;;;;;5105431;27;19924;-59
2023/04/09 10:19:15;;;;;;;;;;;19.50;39.70;;;;;;5110688;28;19923;-59
2023/04/09 10:21:46;;;;;;;;;;;19.50;39.70;;;;;;5101356;28;20205;-59
2023/04/09 10:24:13;;;;;;;;;;;19.50;39.70;;;;;;5094663;28;19941;-59
2023/04/09 10:26:40;;;;;;;;;;;19.50;39.70;;;;;;5095617;28;19924;-59
2023/04/09 10:29:07;;;;;;;;;;;19.50;39.70;;;;;;5093374;28;19953;-59
2023/04/09 10:32:02;;;;;;;;;;;19.50;39.70;;;;;;5115599;27;19920;-59
2023/04/09 10:34:28;;;;;;;;;;;19.50;39.70;;;;;;5072877;28;19932;-59
2023/04/09 10:36:58;;;;;;;;;;;19.50;39.80;;;;;;5117987;27;19920;-59
2023/04/09 10:39:26;;;;;;;;;;;19.50;39.80;;;;;;5095546;28;19936;-59
2023/04/09 10:41:52;;;;;;;;;;;19.50;39.80;;;;;;5116559;27;19930;-59
2023/04/09 10:44:19;;;;;;;;;;;19.50;39.80;;;;;;5096138;28;19924;-59
2023/04/09 10:46:47;;;;;;;;;;;19.50;39.90;;;;;;5096719;28;19920;-59
2023/04/09 10:49:15;;;;;;;;;;;19.50;39.90;;;;;;5096633;28;19943;-59
2023/04/09 10:51:44;;;;;;;;;;;19.50;39.90;;;;;;5098847;28;20402;-59
2023/04/09 10:54:26;;;;;;;;;;;19.50;39.90;;;;;;5094373;28;19981;-59
2023/04/09 10:57:20;;;;;;;;;;;19.50;39.90;;;;;;5096963;28;19955;-59
2023/04/09 10:59:48;;;;;;;;;;;19.50;39.90;;;;;;5057183;28;20357;-59
2023/04/09 11:02:48;;;;;;;;;;;19.50;39.90;;;;;;5099395;27;19920;-60
2023/04/09 11:05:19;;;;;;;;;;;19.50;39.90;;;;;;5043709;28;19921;-59
2023/04/09 11:07:47;;;;;;;;;;;19.60;40.00;;;;;;5029138;28;20019;-59
2023/04/09 11:10:13;;;;;;;;;;;19.50;39.90;;;;;;5077596;28;19984;-59
2023/04/09 11:12:41;;;;;;;;;;;19.50;40.00;;;;;;5107313;27;19924;-59
2023/04/09 11:15:17;;;;;;;;;;;19.60;40.00;;;;;;5093270;28;19923;-59
2023/04/09 11:17:43;;;;;;;;;;;19.50;40.00;;;;;;5075829;28;20014;-58
2023/04/09 11:20:10;;;;;;;;;;;19.60;40.00;;;;;;5099478;28;19971;-58
2023/04/09 11:22:37;;;;;;;;;;;19.60;40.10;;;;;;5110661;28;19927;-58
2023/04/09 11:25:05;;;;;;;;;;;19.50;40.00;;;;;;5097765;28;19920;-58
2023/04/09 11:27:31;;;;;;;;;;;19.60;40.10;;;;;;5098594;28;19932;-59
2023/04/09 11:29:58;;;;;;;;;;;19.60;40.10;;;;;;5095716;28;19924;-59
2023/04/09 11:32:30;;;;;;;;;;;19.60;40.10;;;;;;5098934;28;19928;-59
2023/04/09 11:34:57;;;;;;;;;;;19.60;40.10;;;;;;5102135;28;19928;-59
2023/04/09 11:37:24;;;;;;;;;;;19.60;40.10;;;;;;5099576;28;19934;-58
2023/04/09 11:39:53;;;;;;;;;;;19.60;40.10;;;;;;5110724;28;19927;-59
2023/04/09 11:42:20;;;;;;;;;;;19.60;40.10;;;;;;5114326;27;19923;-59
2023/04/09 11:44:48;;;;;;;;;;;19.60;40.10;;;;;;5090580;28;19978;-59
2023/04/09 11:47:15;;;;;;;;;;;19.60;40.20;;;;;;5110150;27;20357;-59
2023/04/09 11:49:45;;;;;;;;;;;19.60;40.20;;;;;;5097008;28;20357;-59
2023/04/09 11:52:12;;;;;;;;;;;19.60;40.80;;;;;;5110359;28;19942;-59
2023/04/09 11:54:38;;;;;;;;;;;19.60;40.20;;;;;;5095556;28;19924;-59
2023/04/09 11:57:06;;;;;;;;;;;19.60;40.20;;;;;;5098601;28;19969;-59
2023/04/09 11:59:33;;;;;;;;;;;19.60;40.20;;;;;;5106563;28;19920;-59
2023/04/09 12:02:00;;;;;;;;;;;19.60;40.20;;;;;;5110514;27;19931;-58
2023/04/09 12:04:27;;;;;;;;;;;19.60;40.20;;;;;;5112180;27;19924;-58
2023/04/09 12:06:58;;;;;;;;;;;19.60;40.20;;;;;;5098654;27;19920;-59
2023/04/09 12:09:25;;;;;;;;;;;19.60;40.20;;;;;;5107952;28;19962;-59
2023/04/09 12:11:52;;;;;;;;;;;19.60;40.20;;;;;;5118294;27;19923;-58
2023/04/09 12:14:19;;;;;;;;;;;19.60;40.20;;;;;;5111994;27;19984;-59
2023/04/09 12:16:45;;;;;;;;;;;19.60;40.20;;;;;;5106115;28;19919;-59
2023/04/09 12:19:12;;;;;;;;;;;19.60;39.40;;;;;;5090060;28;20059;-61
2023/04/09 12:21:46;;;;;;;;;;;19.50;39.10;;;;;;5101133;28;19923;-59
2023/04/09 12:24:15;;;;;;;;;;;19.50;38.90;;;;;;5109259;28;20347;-59
2023/04/09 12:26:42;;;;;;;;;;;19.40;38.80;;;;;;5111605;27;19920;-59
2023/04/09 12:29:09;;;;;;;;;;;19.30;38.60;;;;;;5108133;28;19931;-59
2023/04/09 12:31:36;;;;;;;;;;;19.20;38.70;;;;;;5097979;28;19939;-60
2023/04/09 12:34:03;;;;;;;;;;;19.10;38.60;;;;;;5114485;27;19920;-60
2023/04/09 12:36:29;;;;;;;;;;;19.10;38.70;;;;;;5094746;27;19941;-60
2023/04/09 12:38:56;;;;;;;;;;;19.00;38.60;;;;;;5095783;28;19932;-61
2023/04/09 12:41:24;;;;;;;;;;;18.90;38.60;;;;;;5099236;28;19973;-61
2023/04/09 12:43:51;;;;;;;;;;;18.90;38.80;;;;;;5101998;27;19923;-58
2023/04/09 12:46:18;;;;;;;;;;;18.80;38.70;;;;;;5113779;27;20406;-57
2023/04/09 12:48:45;;;;;;;;;;;18.80;38.70;;;;;;5109596;28;19920;-59
2023/04/09 12:51:12;;;;;;;;;;;18.70;38.70;;;;;;5086391;28;19923;-58
2023/04/09 12:53:38;;;;;;;;;;;18.60;38.80;;;;;;5099324;28;19920;-59
2023/04/09 12:56:06;;;;;;;;;;;18.60;38.80;;;;;;5111116;27;19920;-59
2023/04/09 12:58:34;;;;;;;;;;;18.50;38.90;;;;;;5096101;28;19920;-60
2023/04/09 13:01:03;;;;;;;;;;;18.50;39.00;;;;;;5095874;28;19926;-59
2023/04/09 13:03:29;;;;;;;;;;;18.40;39.00;;;;;;5097020;28;19924;-59
2023/04/09 13:05:56;;;;;;;;;;;18.40;39.20;;;;;;5090615;28;19955;-59
2023/04/09 13:08:23;;;;;;;;;;;18.40;39.20;;;;;;5112309;28;19932;-61
2023/04/09 13:10:50;;;;;;;;;;;18.40;39.00;;;;;;5109950;28;19969;-59
2023/04/09 13:13:17;;;;;;;;;;;18.30;38.80;;;;;;5111020;28;19919;-60
2023/04/09 13:15:45;;;;;;;;;;;18.30;38.80;;;;;;5108303;28;19926;-60
2023/04/09 13:18:12;;;;;;;;;;;18.20;38.80;;;;;;5099015;28;19920;-61
2023/04/09 13:20:39;;;;;;;;;;;18.20;38.90;;;;;;5096795;28;19960;-58
2023/04/09 13:23:06;;;;;;;;;;;18.10;39.00;;;;;;5095802;28;19919;-60
2023/04/09 13:25:33;;;;;;;;;;;18.10;39.10;;;;;;5095153;28;20421;-59
2023/04/09 13:27:59;;;;;;;;;;;18.10;39.30;;;;;;5087489;28;19923;-60
2023/04/09 13:30:26;;;;;;;;;;;18.00;39.10;;;;;;5094862;28;20420;-62
2023/04/09 13:32:54;;;;;;;;;;;18.10;39.30;;;;;;5111688;28;19920;-60
2023/04/09 13:35:21;;;;;;;;;;;18.10;39.40;;;;;;5098785;28;20013;-60
2023/04/09 13:37:48;;;;;;;;;;;18.10;39.40;;;;;;5096963;28;19919;-60
2023/04/09 13:40:15;;;;;;;;;;;18.20;39.50;;;;;;5120453;27;19920;-61
2023/04/09 13:42:42;;;;;;;;;;;18.20;39.50;;;;;;5120263;27;19919;-62
2023/04/09 13:45:09;;;;;;;;;;;18.30;39.70;;;;;;5138874;27;19920;-62
2023/04/09 13:47:36;;;;;;;;;;;18.30;39.80;;;;;;5135046;27;19920;-62
2023/04/09 13:50:05;;;;;;;;;;;18.40;39.90;;;;;;5118498;27;19946;-63
2023/04/09 13:52:32;;;;;;;;;;;18.40;39.80;;;;;;5119851;27;19926;-62
2023/04/09 13:54:58;;;;;;;;;;;18.50;39.90;;;;;;5129357;27;19920;-62
2023/04/09 13:57:26;;;;;;;;;;;18.50;39.90;;;;;;5116715;27;19940;-63
2023/04/09 13:59:52;;;;;;;;;;;18.60;39.90;;;;;;5120084;27;20221;-63
2023/04/09 14:02:19;;;;;;;;;;;18.60;39.90;;;;;;5136279;27;19969;-62
2023/04/09 14:04:46;;;;;;;;;;;18.70;40.00;;;;;;5137930;27;19919;-62
2023/04/09 14:07:14;;;;;;;;;;;18.70;40.00;;;;;;5133922;27;20268;-62
2023/04/09 14:09:41;;;;;;;;;;;18.80;40.00;;;;;;5097545;28;19930;-59
2023/04/09 14:12:08;;;;;;;;;;;18.70;40.00;;;;;;5116306;28;19920;-58
2023/04/09 14:14:35;;;;;;;;;;;18.80;40.20;;;;;;5116958;28;19970;-58
2023/04/09 14:17:02;;;;;;;;;;;18.80;40.20;;;;;;5099174;28;19919;-59
2023/04/09 14:19:28;;;;;;;;;;;18.90;40.40;;;;;;5113992;28;19927;-58